sensor_id;sensor_type;location;lat;lon;timestamp;temperature;humidity
77218;DHT22;66214;51.302;17.068;2023-02-28T07:13:44;-0.34;77.04
77218;DHT22;66214;51.302;17.068;2023-02-28T07:16:53;-0.23;77.02
77218;DHT22;66214;51.302;17.068;2023-02-28T07:19:25;-0.17;77.11
77218;DHT22;66214;51.302;17.068;2023-02-28T07:21:53;-0.09;77.20
77218;DHT22;66214;51.302;17.068;2023-02-28T07:24:22;-0.01;77.34
77218;DHT22;66214;51.302;17.068;2023-02-28T07:26:53;0.07;77.51
77218;DHT22;66214;51.302;17.068;2023-02-28T07:29:21;0.14;77.68
77218;DHT22;66214;51.302;17.068;2023-02-28T07:31:49;0.21;77.62
77218;DHT22;66214;51.302;17.068;2023-02-28T07:34:20;0.28;77.45
77218;DHT22;66214;51.302;17.068;2023-02-28T07:36:52;0.34;77.31
77218;DHT22;66214;51.302;17.068;2023-02-28T07:39:21;0.35;77.10
77218;DHT22;66214;51.302;17.068;2023-02-28T07:41:49;0.38;77.03
77218;DHT22;66214;51.302;17.068;2023-02-28T07:44:17;0.42;76.82
77218;DHT22;66214;51.302;17.068;2023-02-28T07:46:46;0.44;76.68
77218;DHT22;66214;51.302;17.068;2023-02-28T07:49:13;0.48;76.42
77218;DHT22;66214;51.302;17.068;2023-02-28T07:51:41;0.51;76.28
77218;DHT22;66214;51.302;17.068;2023-02-28T07:54:11;0.55;76.31
77218;DHT22;66214;51.302;17.068;2023-02-28T07:56:39;0.59;76.10
77218;DHT22;66214;51.302;17.068;2023-02-28T07:59:07;0.63;76.07
77218;DHT22;66214;51.302;17.068;2023-02-28T08:01:35;0.62;76.04
77218;DHT22;66214;51.302;17.068;2023-02-28T08:04:03;0.63;75.92
77218;DHT22;66214;51.302;17.068;2023-02-28T08:06:31;0.64;76.00
77218;DHT22;66214;51.302;17.068;2023-02-28T08:08:59;0.68;75.93
77218;DHT22;66214;51.302;17.068;2023-02-28T08:11:27;0.71;75.80
77218;DHT22;66214;51.302;17.068;2023-02-28T08:13:55;0.74;75.67
77218;DHT22;66214;51.302;17.068;2023-02-28T08:16:23;0.77;75.71
77218;DHT22;66214;51.302;17.068;2023-02-28T08:18:51;0.81;75.68
77218;DHT22;66214;51.302;17.068;2023-02-28T08:21:20;0.86;75.63
77218;DHT22;66214;51.302;17.068;2023-02-28T08:23:49;0.93;75.76
77218;DHT22;66214;51.302;17.068;2023-02-28T08:26:18;1.01;75.81
77218;DHT22;66214;51.302;17.068;2023-02-28T08:28:47;1.10;76.14
77218;DHT22;66214;51.302;17.068;2023-02-28T08:31:16;1.24;76.25
77218;DHT22;66214;51.302;17.068;2023-02-28T08:33:45;1.35;75.75
77218;DHT22;66214;51.302;17.068;2023-02-28T08:36:16;1.44;74.62
77218;DHT22;66214;51.302;17.068;2023-02-28T08:38:44;1.52;74.40
77218;DHT22;66214;51.302;17.068;2023-02-28T08:41:13;1.62;74.19
77218;DHT22;66214;51.302;17.068;2023-02-28T08:43:41;1.71;74.11
77218;DHT22;66214;51.302;17.068;2023-02-28T08:46:11;1.82;73.22
77218;DHT22;66214;51.302;17.068;2023-02-28T08:48:40;1.98;73.55
77218;DHT22;66214;51.302;17.068;2023-02-28T08:54:43;2.34;71.25
77218;DHT22;66214;51.302;17.068;2023-02-28T08:57:11;2.49;70.61
77218;DHT22;66214;51.302;17.068;2023-02-28T08:59:38;2.63;70.52
77218;DHT22;66214;51.302;17.068;2023-02-28T09:02:08;2.74;69.84
77218;DHT22;66214;51.302;17.068;2023-02-28T09:04:39;2.82;68.72
77218;DHT22;66214;51.302;17.068;2023-02-28T09:07:09;2.88;67.76
77218;DHT22;66214;51.302;17.068;2023-02-28T09:09:37;2.94;65.97
77218;DHT22;66214;51.302;17.068;2023-02-28T09:12:21;2.96;66.90
77218;DHT22;66214;51.302;17.068;2023-02-28T09:14:51;3.05;66.50
77218;DHT22;66214;51.302;17.068;2023-02-28T09:17:20;3.13;65.52
77218;DHT22;66214;51.302;17.068;2023-02-28T09:19:48;3.25;65.83
77218;DHT22;66214;51.302;17.068;2023-02-28T09:22:16;3.41;64.07
77218;DHT22;66214;51.302;17.068;2023-02-28T09:24:45;3.43;63.18
77218;DHT22;66214;51.302;17.068;2023-02-28T09:27:12;3.85;60.73
77218;DHT22;66214;51.302;17.068;2023-02-28T09:29:41;4.28;62.32
77218;DHT22;66214;51.302;17.068;2023-02-28T09:36:29;4.73;62.72
77218;DHT22;66214;51.302;17.068;2023-02-28T09:38:57;4.67;63.21
77218;DHT22;66214;51.302;17.068;2023-02-28T09:41:25;4.65;63.80
77218;DHT22;66214;51.302;17.068;2023-02-28T09:44:02;4.59;61.64
77218;DHT22;66214;51.302;17.068;2023-02-28T09:46:34;4.59;62.92
77218;DHT22;66214;51.302;17.068;2023-02-28T09:49:12;4.77;63.58
77218;DHT22;66214;51.302;17.068;2023-02-28T09:51:58;4.87;63.56
77218;DHT22;66214;51.302;17.068;2023-02-28T09:54:36;4.94;63.29
77218;DHT22;66214;51.302;17.068;2023-02-28T09:57:20;5.04;63.83
77218;DHT22;66214;51.302;17.068;2023-02-28T10:06:07;5.49;63.70
77218;DHT22;66214;51.302;17.068;2023-02-28T10:08:56;5.48;60.39
77218;DHT22;66214;51.302;17.068;2023-02-28T10:11:32;5.54;60.98
77218;DHT22;66214;51.302;17.068;2023-02-28T10:16:44;6.44;62.61
77218;DHT22;66214;51.302;17.068;2023-02-28T10:19:20;7.98;60.00
77218;DHT22;66214;51.302;17.068;2023-02-28T10:22:27;8.23;55.75
77218;DHT22;66214;51.302;17.068;2023-02-28T10:25:05;7.68;57.24
77218;DHT22;66214;51.302;17.068;2023-02-28T10:27:49;7.24;61.16
77218;DHT22;66214;51.302;17.068;2023-02-28T10:30:20;6.84;56.06
77218;DHT22;66214;51.302;17.068;2023-02-28T10:32:49;6.48;59.01
77218;DHT22;66214;51.302;17.068;2023-02-28T10:37:48;6.18;58.25
77218;DHT22;66214;51.302;17.068;2023-02-28T10:45:52;8.84;52.01
77218;DHT22;66214;51.302;17.068;2023-02-28T10:48:32;10.04;55.73
77218;DHT22;66214;51.302;17.068;2023-02-28T10:51:02;10.90;50.34
77218;DHT22;66214;51.302;17.068;2023-02-28T10:53:37;11.23;53.53
77218;DHT22;66214;51.302;17.068;2023-02-28T10:56:32;12.13;51.01
77218;DHT22;66214;51.302;17.068;2023-02-28T11:07:00;15.05;47.95
77218;DHT22;66214;51.302;17.068;2023-02-28T11:09:39;15.45;49.20
77218;DHT22;66214;51.302;17.068;2023-02-28T11:12:18;15.44;40.83
77218;DHT22;66214;51.302;17.068;2023-02-28T11:15:18;15.37;44.22
77218;DHT22;66214;51.302;17.068;2023-02-28T11:20:26;15.65;44.90
77218;DHT22;66214;51.302;17.068;2023-02-28T11:22:58;14.77;44.66
77218;DHT22;66214;51.302;17.068;2023-02-28T11:25:36;13.93;43.31
77218;DHT22;66214;51.302;17.068;2023-02-28T11:28:06;13.23;42.80
77218;DHT22;66214;51.302;17.068;2023-02-28T11:31:15;12.70;42.94
77218;DHT22;66214;51.302;17.068;2023-02-28T11:33:47;12.24;42.00
77218;DHT22;66214;51.302;17.068;2023-02-28T11:36:28;11.57;43.09
77218;DHT22;66214;51.302;17.068;2023-02-28T11:38:59;10.94;43.40
77218;DHT22;66214;51.302;17.068;2023-02-28T11:52:47;8.73;45.05
77218;DHT22;66214;51.302;17.068;2023-02-28T11:55:41;8.44;44.77
77218;DHT22;66214;51.302;17.068;2023-02-28T12:07:21;13.07;44.55
77218;DHT22;66214;51.302;17.068;2023-02-28T12:10:04;14.35;43.08
77218;DHT22;66214;51.302;17.068;2023-02-28T12:27:11;15.91;38.94
77218;DHT22;66214;51.302;17.068;2023-02-28T12:29:50;16.13;39.06
77218;DHT22;66214;51.302;17.068;2023-02-28T12:32:25;16.04;37.83
77218;DHT22;66214;51.302;17.068;2023-02-28T12:35:04;16.24;37.94
77218;DHT22;66214;51.302;17.068;2023-02-28T12:37:45;15.97;33.56
77218;DHT22;66214;51.302;17.068;2023-02-28T12:40:26;15.65;33.74
77218;DHT22;66214;51.302;17.068;2023-02-28T12:43:07;15.48;35.59
77218;DHT22;66214;51.302;17.068;2023-02-28T12:45:42;15.77;36.74
77218;DHT22;66214;51.302;17.068;2023-02-28T12:49:05;15.90;36.84
77218;DHT22;66214;51.302;17.068;2023-02-28T12:51:18;15.82;36.90
77218;DHT22;66214;51.302;17.068;2023-02-28T12:54:07;15.81;35.17
77218;DHT22;66214;51.302;17.068;2023-02-28T13:00:03;15.84;36.11
77218;DHT22;66214;51.302;17.068;2023-02-28T13:11:24;15.50;34.02
77218;DHT22;66214;51.302;17.068;2023-02-28T13:13:57;16.02;34.81
77218;DHT22;66214;51.302;17.068;2023-02-28T13:16:27;16.34;34.43
77218;DHT22;66214;51.302;17.068;2023-02-28T13:19:07;16.34;34.39
77218;DHT22;66214;51.302;17.068;2023-02-28T13:21:41;16.11;33.72
77218;DHT22;66214;51.302;17.068;2023-02-28T13:24:12;15.23;34.52
77218;DHT22;66214;51.302;17.068;2023-02-28T13:27:39;14.14;35.42
77218;DHT22;66214;51.302;17.068;2023-02-28T13:33:22;11.98;35.91
77218;DHT22;66214;51.302;17.068;2023-02-28T13:38:55;10.47;36.98
77218;DHT22;66214;51.302;17.068;2023-02-28T13:44:10;9.44;38.59
77218;DHT22;66214;51.302;17.068;2023-02-28T14:06:30;7.44;41.43
77218;DHT22;66214;51.302;17.068;2023-02-28T14:11:40;7.16;41.89
77218;DHT22;66214;51.302;17.068;2023-02-28T14:14:54;6.97;41.97
77218;DHT22;66214;51.302;17.068;2023-02-28T14:17:05;6.79;42.42
77218;DHT22;66214;51.302;17.068;2023-02-28T14:19:37;6.60;42.64
77218;DHT22;66214;51.302;17.068;2023-02-28T14:36:53;5.52;44.86
77218;DHT22;66214;51.302;17.068;2023-02-28T14:39:23;5.43;44.64
77218;DHT22;66214;51.302;17.068;2023-02-28T14:41:54;5.33;44.91
77218;DHT22;66214;51.302;17.068;2023-02-28T14:44:24;5.26;45.15
77218;DHT22;66214;51.302;17.068;2023-02-28T14:46:55;5.23;44.75
77218;DHT22;66214;51.302;17.068;2023-02-28T14:49:42;5.15;45.64
77218;DHT22;66214;51.302;17.068;2023-02-28T14:52:20;5.03;46.24
77218;DHT22;66214;51.302;17.068;2023-02-28T14:55:00;4.97;46.36
77218;DHT22;66214;51.302;17.068;2023-02-28T14:57:40;4.81;47.24
77218;DHT22;66214;51.302;17.068;2023-02-28T15:00:13;4.76;46.84
77218;DHT22;66214;51.302;17.068;2023-02-28T15:02:58;4.70;47.41
77218;DHT22;66214;51.302;17.068;2023-02-28T15:05:30;4.62;47.95
77218;DHT22;66214;51.302;17.068;2023-02-28T15:08:12;4.57;47.62
77218;DHT22;66214;51.302;17.068;2023-02-28T15:10:44;4.53;47.75
77218;DHT22;66214;51.302;17.068;2023-02-28T15:17:16;4.47;47.46
77218;DHT22;66214;51.302;17.068;2023-02-28T15:19:51;4.45;47.36
77218;DHT22;66214;51.302;17.068;2023-02-28T15:22:25;4.44;47.44
77218;DHT22;66214;51.302;17.068;2023-02-28T15:25:01;4.40;47.58
77218;DHT22;66214;51.302;17.068;2023-02-28T15:27:32;4.35;47.61
77218;DHT22;66214;51.302;17.068;2023-02-28T15:30:14;4.29;48.23
77218;DHT22;66214;51.302;17.068;2023-02-28T15:35:50;4.26;48.02
77218;DHT22;66214;51.302;17.068;2023-02-28T15:38:24;4.36;48.29
77218;DHT22;66214;51.302;17.068;2023-02-28T15:40:55;4.63;47.78
77218;DHT22;66214;51.302;17.068;2023-02-28T15:43:32;4.80;48.38
77218;DHT22;66214;51.302;17.068;2023-02-28T15:46:07;5.01;47.93
77218;DHT22;66214;51.302;17.068;2023-02-28T15:48:44;5.21;47.67
77218;DHT22;66214;51.302;17.068;2023-02-28T15:51:41;5.29;47.71
77218;DHT22;66214;51.302;17.068;2023-02-28T15:54:14;5.05;48.12
77218;DHT22;66214;51.302;17.068;2023-02-28T15:56:52;4.82;48.15
77218;DHT22;66214;51.302;17.068;2023-02-28T15:59:27;4.47;49.88
77218;DHT22;66214;51.302;17.068;2023-02-28T16:02:17;4.12;50.30
77218;DHT22;66214;51.302;17.068;2023-02-28T16:04:57;3.83;50.32
77218;DHT22;66214;51.302;17.068;2023-02-28T16:07:28;3.60;51.63
77218;DHT22;66214;51.302;17.068;2023-02-28T16:09:57;3.38;52.54
77218;DHT22;66214;51.302;17.068;2023-02-28T16:12:27;3.17;52.83
77218;DHT22;66214;51.302;17.068;2023-02-28T16:15:03;2.99;52.78
77218;DHT22;66214;51.302;17.068;2023-02-28T16:17:38;2.84;52.72
77218;DHT22;66214;51.302;17.068;2023-02-28T16:20:17;2.72;53.00
77218;DHT22;66214;51.302;17.068;2023-02-28T16:22:52;2.59;52.87
77218;DHT22;66214;51.302;17.068;2023-02-28T16:25:26;2.47;53.29
77218;DHT22;66214;51.302;17.068;2023-02-28T16:28:24;2.33;55.00
77218;DHT22;66214;51.302;17.068;2023-02-28T16:31:01;2.18;55.39
77218;DHT22;66214;51.302;17.068;2023-02-28T16:33:33;2.06;54.43
77218;DHT22;66214;51.302;17.068;2023-02-28T16:36:02;1.96;54.41
77218;DHT22;66214;51.302;17.068;2023-02-28T16:38:31;1.85;54.51
77218;DHT22;66214;51.302;17.068;2023-02-28T16:41:01;1.76;54.69
77218;DHT22;66214;51.302;17.068;2023-02-28T16:43:30;1.65;54.71
77218;DHT22;66214;51.302;17.068;2023-02-28T16:45:58;1.55;54.99
77218;DHT22;66214;51.302;17.068;2023-02-28T16:48:27;1.44;54.91
77218;DHT22;66214;51.302;17.068;2023-02-28T16:50:55;1.32;54.96
77218;DHT22;66214;51.302;17.068;2023-02-28T16:53:23;1.23;55.92
77218;DHT22;66214;51.302;17.068;2023-02-28T16:55:52;1.13;55.39
77218;DHT22;66214;51.302;17.068;2023-02-28T16:58:20;1.01;55.37
77218;DHT22;66214;51.302;17.068;2023-02-28T17:00:51;0.90;54.93
77218;DHT22;66214;51.302;17.068;2023-02-28T17:03:24;0.78;55.73
77218;DHT22;66214;51.302;17.068;2023-02-28T17:05:54;0.67;55.82
77218;DHT22;66214;51.302;17.068;2023-02-28T17:08:23;0.55;55.76
77218;DHT22;66214;51.302;17.068;2023-02-28T17:10:51;0.44;55.83
77218;DHT22;66214;51.302;17.068;2023-02-28T17:13:20;0.33;55.95
77218;DHT22;66214;51.302;17.068;2023-02-28T17:15:49;0.22;56.23
77218;DHT22;66214;51.302;17.068;2023-02-28T17:18:18;0.10;56.08
77218;DHT22;66214;51.302;17.068;2023-02-28T17:20:49;0.00;56.31
77218;DHT22;66214;51.302;17.068;2023-02-28T17:23:18;-0.08;56.97
77218;DHT22;66214;51.302;17.068;2023-02-28T17:25:46;-0.17;57.69
77218;DHT22;66214;51.302;17.068;2023-02-28T17:28:21;-0.25;57.62
77218;DHT22;66214;51.302;17.068;2023-02-28T17:30:49;-0.33;57.24
77218;DHT22;66214;51.302;17.068;2023-02-28T17:33:18;-0.43;57.49
77218;DHT22;66214;51.302;17.068;2023-02-28T17:35:46;-0.52;57.63
77218;DHT22;66214;51.302;17.068;2023-02-28T17:38:18;-0.60;57.80
77218;DHT22;66214;51.302;17.068;2023-02-28T17:40:49;-0.67;57.93
77218;DHT22;66214;51.302;17.068;2023-02-28T17:43:18;-0.71;58.29
77218;DHT22;66214;51.302;17.068;2023-02-28T17:45:46;-0.74;58.78
77218;DHT22;66214;51.302;17.068;2023-02-28T17:48:14;-0.75;59.36
77218;DHT22;66214;51.302;17.068;2023-02-28T17:50:42;-0.73;59.87
77218;DHT22;66214;51.302;17.068;2023-02-28T17:53:11;-0.72;60.44
77218;DHT22;66214;51.302;17.068;2023-02-28T17:55:39;-0.70;60.84
77218;DHT22;66214;51.302;17.068;2023-02-28T17:58:09;-0.68;61.27
77218;DHT22;66214;51.302;17.068;2023-02-28T18:00:40;-0.67;60.91
77218;DHT22;66214;51.302;17.068;2023-02-28T18:03:08;-0.65;60.71
77218;DHT22;66214;51.302;17.068;2023-02-28T18:05:37;-0.67;60.56
77218;DHT22;66214;51.302;17.068;2023-02-28T18:08:08;-0.70;60.71
77218;DHT22;66214;51.302;17.068;2023-02-28T18:10:38;-0.75;60.64
77218;DHT22;66214;51.302;17.068;2023-02-28T18:13:09;-0.82;60.55
77218;DHT22;66214;51.302;17.068;2023-02-28T18:15:40;-0.89;60.48
77218;DHT22;66214;51.302;17.068;2023-02-28T18:18:09;-0.97;60.59
77218;DHT22;66214;51.302;17.068;2023-02-28T18:20:41;-1.05;60.68
77218;DHT22;66214;51.302;17.068;2023-02-28T18:23:13;-1.14;60.68
77218;DHT22;66214;51.302;17.068;2023-02-28T18:25:50;-1.24;60.83
77218;DHT22;66214;51.302;17.068;2023-02-28T18:28:18;-1.33;60.92
77218;DHT22;66214;51.302;17.068;2023-02-28T18:30:47;-1.41;61.09
77218;DHT22;66214;51.302;17.068;2023-02-28T18:33:16;-1.50;60.83
77218;DHT22;66214;51.302;17.068;2023-02-28T18:35:44;-1.56;61.01
77218;DHT22;66214;51.302;17.068;2023-02-28T18:38:13;-1.64;61.22
77218;DHT22;66214;51.302;17.068;2023-02-28T18:40:53;-1.71;61.47
77218;DHT22;66214;51.302;17.068;2023-02-28T18:43:26;-1.77;61.50
77218;DHT22;66214;51.302;17.068;2023-02-28T18:46:02;-1.84;61.51
77218;DHT22;66214;51.302;17.068;2023-02-28T18:48:33;-1.89;61.56
77218;DHT22;66214;51.302;17.068;2023-02-28T18:51:08;-1.95;61.50
77218;DHT22;66214;51.302;17.068;2023-02-28T18:53:38;-2.01;61.89
77218;DHT22;66214;51.302;17.068;2023-02-28T18:56:09;-2.06;61.87
77218;DHT22;66214;51.302;17.068;2023-02-28T19:02:07;-2.09;62.66
77218;DHT22;66214;51.302;17.068;2023-02-28T19:04:39;-2.07;63.07
77218;DHT22;66214;51.302;17.068;2023-02-28T19:07:09;-2.07;63.50
77218;DHT22;66214;51.302;17.068;2023-02-28T19:12:44;-1.95;65.07
77218;DHT22;66214;51.302;17.068;2023-02-28T19:15:14;-1.87;65.23
77218;DHT22;66214;51.302;17.068;2023-02-28T19:17:42;-1.80;65.32
77218;DHT22;66214;51.302;17.068;2023-02-28T19:20:13;-1.71;65.38
77218;DHT22;66214;51.302;17.068;2023-02-28T19:22:41;-1.65;64.91
77218;DHT22;66214;51.302;17.068;2023-02-28T19:25:10;-1.60;64.64
77218;DHT22;66214;51.302;17.068;2023-02-28T19:27:38;-1.60;64.47
77218;DHT22;66214;51.302;17.068;2023-02-28T19:30:06;-1.63;64.48
77218;DHT22;66214;51.302;17.068;2023-02-28T19:32:36;-1.67;64.35
77218;DHT22;66214;51.302;17.068;2023-02-28T19:35:04;-1.71;64.46
77218;DHT22;66214;51.302;17.068;2023-02-28T19:37:35;-1.76;64.28
77218;DHT22;66214;51.302;17.068;2023-02-28T19:40:06;-1.82;64.38
77218;DHT22;66214;51.302;17.068;2023-02-28T19:42:37;-1.88;64.87
77218;DHT22;66214;51.302;17.068;2023-02-28T19:45:05;-1.95;64.80
77218;DHT22;66214;51.302;17.068;2023-02-28T19:47:36;-2.00;64.48
77218;DHT22;66214;51.302;17.068;2023-02-28T19:50:06;-2.07;64.65
77218;DHT22;66214;51.302;17.068;2023-02-28T19:52:35;-2.14;64.62
77218;DHT22;66214;51.302;17.068;2023-02-28T19:55:04;-2.20;64.89
77218;DHT22;66214;51.302;17.068;2023-02-28T19:57:32;-2.27;64.77
77218;DHT22;66214;51.302;17.068;2023-02-28T20:00:01;-2.33;64.91
77218;DHT22;66214;51.302;17.068;2023-02-28T20:02:29;-2.37;65.13
77218;DHT22;66214;51.302;17.068;2023-02-28T20:04:57;-2.42;65.17
77218;DHT22;66214;51.302;17.068;2023-02-28T20:07:26;-2.45;65.12
77218;DHT22;66214;51.302;17.068;2023-02-28T20:09:55;-2.51;64.99
77218;DHT22;66214;51.302;17.068;2023-02-28T20:12:23;-2.55;65.17
77218;DHT22;66214;51.302;17.068;2023-02-28T20:14:52;-2.59;65.44
77218;DHT22;66214;51.302;17.068;2023-02-28T20:17:24;-2.61;65.26
77218;DHT22;66214;51.302;17.068;2023-02-28T20:19:52;-2.60;65.44
77218;DHT22;66214;51.302;17.068;2023-02-28T20:22:20;-2.58;65.81
77218;DHT22;66214;51.302;17.068;2023-02-28T20:24:48;-2.53;66.18
77218;DHT22;66214;51.302;17.068;2023-02-28T20:27:16;-2.50;66.57
77218;DHT22;66214;51.302;17.068;2023-02-28T20:29:44;-2.44;66.86
77218;DHT22;66214;51.302;17.068;2023-02-28T20:32:12;-2.39;67.10
77218;DHT22;66214;51.302;17.068;2023-02-28T20:34:40;-2.32;67.34
77218;DHT22;66214;51.302;17.068;2023-02-28T20:37:08;-2.28;67.55
77218;DHT22;66214;51.302;17.068;2023-02-28T20:39:36;-2.27;67.69
77218;DHT22;66214;51.302;17.068;2023-02-28T20:42:04;-2.28;67.52
77218;DHT22;66214;51.302;17.068;2023-02-28T20:44:32;-2.29;67.36
77218;DHT22;66214;51.302;17.068;2023-02-28T20:47:00;-2.31;67.19
77218;DHT22;66214;51.302;17.068;2023-02-28T20:49:28;-2.34;67.12
77218;DHT22;66214;51.302;17.068;2023-02-28T20:51:56;-2.39;67.14
77218;DHT22;66214;51.302;17.068;2023-02-28T20:54:24;-2.46;66.84
77218;DHT22;66214;51.302;17.068;2023-02-28T20:56:52;-2.53;66.72
77218;DHT22;66214;51.302;17.068;2023-02-28T20:59:21;-2.59;66.63
77218;DHT22;66214;51.302;17.068;2023-02-28T21:01:49;-2.66;66.78
77218;DHT22;66214;51.302;17.068;2023-02-28T21:04:18;-2.74;66.65
77218;DHT22;66214;51.302;17.068;2023-02-28T21:06:46;-2.81;66.65
77218;DHT22;66214;51.302;17.068;2023-02-28T21:09:14;-2.88;66.71
77218;DHT22;66214;51.302;17.068;2023-02-28T21:11:42;-2.94;66.70
77218;DHT22;66214;51.302;17.068;2023-02-28T21:14:19;-3.01;67.07
77218;DHT22;66214;51.302;17.068;2023-02-28T21:16:49;-3.07;67.17
77218;DHT22;66214;51.302;17.068;2023-02-28T21:19:17;-3.13;67.14
77218;DHT22;66214;51.302;17.068;2023-02-28T21:21:45;-3.18;67.38
77218;DHT22;66214;51.302;17.068;2023-02-28T21:24:16;-3.23;67.78
77218;DHT22;66214;51.302;17.068;2023-02-28T21:26:46;-3.28;67.44
77218;DHT22;66214;51.302;17.068;2023-02-28T21:29:15;-3.33;67.59
77218;DHT22;66214;51.302;17.068;2023-02-28T21:31:43;-3.37;67.21
77218;DHT22;66214;51.302;17.068;2023-02-28T21:34:11;-3.39;67.54
77218;DHT22;66214;51.302;17.068;2023-02-28T21:36:41;-3.40;67.80
77218;DHT22;66214;51.302;17.068;2023-02-28T21:39:21;-3.38;68.29
77218;DHT22;66214;51.302;17.068;2023-02-28T21:41:53;-3.38;68.72
77218;DHT22;66214;51.302;17.068;2023-02-28T21:44:21;-3.35;69.13
77218;DHT22;66214;51.302;17.068;2023-02-28T21:46:50;-3.30;69.51
77218;DHT22;66214;51.302;17.068;2023-02-28T21:49:21;-3.24;69.72
77218;DHT22;66214;51.302;17.068;2023-02-28T21:51:49;-3.17;69.84
77218;DHT22;66214;51.302;17.068;2023-02-28T21:54:17;-3.13;70.15
77218;DHT22;66214;51.302;17.068;2023-02-28T21:56:45;-3.10;70.14
77218;DHT22;66214;51.302;17.068;2023-02-28T21:59:13;-3.07;70.16
77218;DHT22;66214;51.302;17.068;2023-02-28T22:01:41;-3.07;70.02
77218;DHT22;66214;51.302;17.068;2023-02-28T22:04:11;-3.06;69.87
77218;DHT22;66214;51.302;17.068;2023-02-28T22:06:48;-3.09;69.62
77218;DHT22;66214;51.302;17.068;2023-02-28T22:09:19;-3.13;69.50
77218;DHT22;66214;51.302;17.068;2023-02-28T22:11:48;-3.20;69.30
77218;DHT22;66214;51.302;17.068;2023-02-28T22:14:17;-3.26;69.37
77218;DHT22;66214;51.302;17.068;2023-02-28T22:16:45;-3.34;69.30
77218;DHT22;66214;51.302;17.068;2023-02-28T22:19:13;-3.40;69.86
77218;DHT22;66214;51.302;17.068;2023-02-28T22:21:42;-3.48;69.95
77218;DHT22;66214;51.302;17.068;2023-02-28T22:24:11;-3.53;69.94
77218;DHT22;66214;51.302;17.068;2023-02-28T22:26:39;-3.60;69.77
77218;DHT22;66214;51.302;17.068;2023-02-28T22:29:07;-3.66;69.89
77218;DHT22;66214;51.302;17.068;2023-02-28T22:31:35;-3.73;69.93
77218;DHT22;66214;51.302;17.068;2023-02-28T22:34:04;-3.79;69.99
77218;DHT22;66214;51.302;17.068;2023-02-28T22:36:36;-3.85;69.49
77218;DHT22;66214;51.302;17.068;2023-02-28T22:39:07;-3.89;69.36
77218;DHT22;66214;51.302;17.068;2023-02-28T22:41:36;-3.95;69.95
77218;DHT22;66214;51.302;17.068;2023-02-28T22:44:05;-4.00;70.22
77218;DHT22;66214;51.302;17.068;2023-02-28T22:46:33;-4.06;69.87
77218;DHT22;66214;51.302;17.068;2023-02-28T22:49:02;-4.11;69.76
77218;DHT22;66214;51.302;17.068;2023-02-28T22:51:32;-4.12;69.95
77218;DHT22;66214;51.302;17.068;2023-02-28T22:54:01;-4.12;70.10
77218;DHT22;66214;51.302;17.068;2023-02-28T22:56:30;-4.11;70.27
77218;DHT22;66214;51.302;17.068;2023-02-28T22:58:59;-4.10;70.65
77218;DHT22;66214;51.302;17.068;2023-02-28T23:01:29;-4.07;71.07
77218;DHT22;66214;51.302;17.068;2023-02-28T23:03:59;-4.01;71.28
77218;DHT22;66214;51.302;17.068;2023-02-28T23:06:30;-3.95;71.46
77218;DHT22;66214;51.302;17.068;2023-02-28T23:09:10;-3.86;71.55
77218;DHT22;66214;51.302;17.068;2023-02-28T23:11:49;-3.78;71.63
77218;DHT22;66214;51.302;17.068;2023-02-28T23:14:18;-3.74;71.72
77218;DHT22;66214;51.302;17.068;2023-02-28T23:16:49;-3.72;71.75
77218;DHT22;66214;51.302;17.068;2023-02-28T23:19:28;-3.71;71.80
77218;DHT22;66214;51.302;17.068;2023-02-28T23:21:59;-3.71;71.78
77218;DHT22;66214;51.302;17.068;2023-02-28T23:24:29;-3.74;71.78
77218;DHT22;66214;51.302;17.068;2023-02-28T23:27:01;-3.79;71.71
77218;DHT22;66214;51.302;17.068;2023-02-28T23:29:31;-3.85;71.57
77218;DHT22;66214;51.302;17.068;2023-02-28T23:32:00;-3.93;71.88
77218;DHT22;66214;51.302;17.068;2023-02-28T23:34:28;-4.00;71.90
77218;DHT22;66214;51.302;17.068;2023-02-28T23:36:58;-4.06;71.67
77218;DHT22;66214;51.302;17.068;2023-02-28T23:39:28;-4.13;71.65
77218;DHT22;66214;51.302;17.068;2023-02-28T23:41:57;-4.18;71.65
77218;DHT22;66214;51.302;17.068;2023-02-28T23:44:28;-4.25;71.34
77218;DHT22;66214;51.302;17.068;2023-02-28T23:46:56;-4.32;71.61
